createdAt,value
2022-09-11T00:01:44.777Z,99796.73
2022-09-11T00:04:12.707Z,99792.77
2022-09-11T00:06:41.143Z,99786.88
2022-09-11T00:09:09.268Z,99782.70
2022-09-11T00:11:42.788Z,99789.45
2022-09-11T00:14:14.185Z,99781.75
2022-09-11T00:16:46.483Z,99779.45
2022-09-11T00:19:20.218Z,99777.70
2022-09-11T00:21:50.765Z,99771.52
2022-09-11T00:24:19.964Z,99771.55
2022-09-11T00:26:48.509Z,99768.52
2022-09-11T00:29:16.540Z,99768.28
2022-09-11T00:31:45.064Z,99770.42
2022-09-11T00:34:13.253Z,99764.20
2022-09-11T00:36:44.364Z,99763.92
2022-09-11T00:39:14.487Z,99760.58
2022-09-11T00:41:46.583Z,99757.75
2022-09-11T00:44:16.695Z,99759.06
2022-09-11T00:46:52.145Z,99756.39
2022-09-11T00:49:30.856Z,99753.36
2022-09-11T00:52:15.150Z,99754.43
2022-09-11T00:54:52.441Z,99757.33
2022-09-11T00:57:33.182Z,99753.02
2022-09-11T01:00:02.402Z,99751.61
2022-09-11T01:02:35.451Z,99752.08
2022-09-11T01:05:05.068Z,99749.23
2022-09-11T01:07:36.072Z,99747.59
2022-09-11T01:10:06.792Z,99746.63
2022-09-11T01:12:37.606Z,99743.73
2022-09-11T01:15:28.621Z,99735.65
2022-09-11T01:18:07.753Z,99739.48
2022-09-11T01:21:00.149Z,99739.79
2022-09-11T01:24:05.395Z,99738.69
2022-09-11T01:26:58.833Z,99740.98
2022-09-11T01:29:50.164Z,99738.46
2022-09-11T01:32:24.723Z,99733.14
2022-09-11T01:35:00.924Z,99730.14
2022-09-11T01:37:40.967Z,99727.44
2022-09-11T01:40:25.028Z,99725.67
2022-09-11T01:43:00.549Z,99722.48
2022-09-11T01:45:31.431Z,99720.52
2022-09-11T01:48:01.109Z,99717.29
2022-09-11T01:50:31.900Z,99723.02
2022-09-11T01:53:05.362Z,99721.34
2022-09-11T01:56:03.615Z,99719.25
2022-09-11T01:58:35.773Z,99717.11
2022-09-11T02:01:10.577Z,99721.17
2022-09-11T02:03:44.862Z,99720.07
2022-09-11T02:06:18.318Z,99722.30
2022-09-11T02:09:00.608Z,99720.34
2022-09-11T02:11:33.767Z,99723.58
2022-09-11T02:14:26.012Z,99722.47
2022-09-11T02:17:09.137Z,99722.09
2022-09-11T02:19:38.866Z,99720.38
2022-09-11T02:22:17.164Z,99717.61
2022-09-11T02:24:45.129Z,99723.58
2022-09-11T02:27:18.945Z,99722.27
2022-09-11T02:29:47.148Z,99718.74
2022-09-11T02:32:15.465Z,99717.15
2022-09-11T02:34:46.827Z,99713.60
2022-09-11T02:37:35.194Z,99714.84
2022-09-11T02:40:31.510Z,99713.21
2022-09-11T02:43:25.310Z,99711.23
2022-09-11T02:46:09.514Z,99714.20
2022-09-11T02:48:53.829Z,99709.20
2022-09-11T02:51:47.068Z,99705.05
2022-09-11T02:54:49.095Z,99704.83
2022-09-11T02:57:45.710Z,99700.75
2022-09-11T03:00:14.808Z,99699.98
2022-09-11T03:02:44.850Z,99699.17
2022-09-11T03:05:13.604Z,99693.61
2022-09-11T03:07:41.796Z,99692.78
2022-09-11T03:10:11.724Z,99695.39
2022-09-11T03:12:40.270Z,99694.02
2022-09-11T03:15:10.754Z,99691.35
2022-09-11T03:17:39.252Z,99692.52
2022-09-11T03:20:08.013Z,99686.31
2022-09-11T03:22:35.961Z,99685.42
2022-09-11T03:25:04.949Z,99693.41
2022-09-11T03:27:33.085Z,99691.48
2022-09-11T03:30:01.127Z,99694.76
2022-09-11T03:32:29.418Z,99692.04
2022-09-11T03:34:57.773Z,99683.64
2022-09-11T03:37:26.517Z,99683.36
2022-09-11T03:39:55.115Z,99683.61
2022-09-11T03:42:23.137Z,99686.95
2022-09-11T03:44:51.034Z,99684.11
2022-09-11T03:47:22.502Z,99682.42
2022-09-11T03:49:50.529Z,99684.38
2022-09-11T03:52:18.683Z,99684.22
2022-09-11T03:54:47.772Z,99686.89
2022-09-11T03:57:16.142Z,99682.32
2022-09-11T03:59:44.078Z,99683.27
2022-09-11T04:02:12.081Z,99679.89
2022-09-11T04:04:40.275Z,99678.87
2022-09-11T04:07:08.375Z,99680.41
2022-09-11T04:09:36.471Z,99680.77
2022-09-11T04:12:04.929Z,99684.66
2022-09-11T04:14:32.929Z,99681.05
2022-09-11T04:17:00.894Z,99682.70
2022-09-11T04:19:29.598Z,99683.97
2022-09-11T04:21:57.519Z,99680.30
2022-09-11T04:24:25.538Z,99682.80
2022-09-11T04:26:57.341Z,99679.91
2022-09-11T04:29:28.631Z,99678.66
2022-09-11T04:31:58.075Z,99678.28
2022-09-11T04:34:26.529Z,99676.02
2022-09-11T04:36:55.584Z,99679.55
2022-09-11T04:39:23.795Z,99682.36
2022-09-11T04:41:51.839Z,99680.81
2022-09-11T04:44:20.991Z,99674.68
2022-09-11T04:46:49.060Z,99677.23
2022-09-11T04:49:17.241Z,99674.52
2022-09-11T04:51:45.588Z,99674.96
2022-09-11T04:54:16.420Z,99670.23
2022-09-11T04:56:44.590Z,99668.96
2022-09-11T04:59:19.889Z,99669.65
2022-09-11T05:01:48.777Z,99666.99
2022-09-11T05:04:25.766Z,99665.84
2022-09-11T05:06:54.538Z,99659.20
2022-09-11T05:09:22.614Z,99662.14
2022-09-11T05:11:50.685Z,99658.95
2022-09-11T05:14:18.682Z,99660.80
2022-09-11T05:16:46.705Z,99660.81
2022-09-11T05:19:14.677Z,99657.56
2022-09-11T05:21:42.709Z,99656.74
2022-09-11T05:24:11.104Z,99654.79
2022-09-11T05:26:39.074Z,99657.07
2022-09-11T05:29:17.334Z,99656.02
2022-09-11T05:31:45.440Z,99656.88
2022-09-11T05:34:13.521Z,99653.16
2022-09-11T05:36:42.094Z,99658.59
2022-09-11T05:39:10.915Z,99658.29
2022-09-11T05:41:38.935Z,99658.41
2022-09-11T05:44:07.054Z,99659.08
2022-09-11T05:46:34.974Z,99662.77
2022-09-11T05:49:03.100Z,99661.77
2022-09-11T05:51:35.737Z,99659.25
2022-09-11T05:54:04.621Z,99658.48
2022-09-11T05:56:32.534Z,99658.11
2022-09-11T05:59:02.558Z,99655.88
2022-09-11T06:01:31.507Z,99657.80
2022-09-11T06:03:59.653Z,99654.56
2022-09-11T06:06:27.556Z,99655.45
2022-09-11T06:09:07.861Z,99656.37
2022-09-11T06:11:35.946Z,99654.95
2022-09-11T06:14:03.999Z,99659.36
2022-09-11T06:16:32.959Z,99663.17
2022-09-11T06:19:13.430Z,99666.33
2022-09-11T06:21:44.845Z,99672.64
2022-09-11T06:24:13.525Z,99670.10
2022-09-11T06:26:53.741Z,99667.87
2022-09-11T06:29:25.317Z,99667.27
2022-09-11T06:32:14.150Z,99669.63
2022-09-11T06:35:12.634Z,99669.02
2022-09-11T06:38:11.074Z,99671.27
2022-09-11T06:41:02.401Z,99671.30
2022-09-11T06:43:31.764Z,99668.84
2022-09-11T06:46:24.210Z,99668.80
2022-09-11T06:48:54.092Z,99666.87
2022-09-11T06:51:23.675Z,99667.89
2022-09-11T06:53:59.594Z,99665.64
2022-09-11T06:56:46.217Z,99671.06
2022-09-11T06:59:24.127Z,99672.50
2022-09-11T07:01:52.309Z,99671.16
2022-09-11T07:04:20.521Z,99673.06
2022-09-11T07:06:48.520Z,99674.38
2022-09-11T07:09:16.670Z,99672.62
2022-09-11T07:11:47.070Z,99674.08
2022-09-11T07:14:15.076Z,99674.48
2022-09-11T07:16:43.165Z,99670.55
2022-09-11T07:19:11.324Z,99668.49
2022-09-11T07:21:39.838Z,99666.65
2022-09-11T07:24:09.525Z,99664.55
2022-09-11T07:26:37.654Z,99666.98
2022-09-11T07:29:06.810Z,99665.38
2022-09-11T07:31:38.748Z,99663.33
2022-09-11T07:34:06.931Z,99667.88
2022-09-11T07:36:35.924Z,99661.79
2022-09-11T07:39:05.520Z,99657.35
2022-09-11T07:41:33.670Z,99658.89
2022-09-11T07:44:01.944Z,99656.64
2022-09-11T07:46:31.398Z,99655.65
2022-09-11T07:49:02.417Z,99661.01
2022-09-11T07:51:30.353Z,99658.23
2022-09-11T07:53:59.692Z,99654.81
2022-09-11T07:56:28.724Z,99654.40
2022-09-11T07:58:57.355Z,99655.06
2022-09-11T08:01:29.967Z,99658.05
2022-09-11T08:04:01.397Z,99656.08
2022-09-11T08:06:33.090Z,99658.06
2022-09-11T08:09:05.705Z,99660.23
2022-09-11T08:11:38.725Z,99659.39
2022-09-11T08:14:07.599Z,99659.67
2022-09-11T08:16:39.060Z,99658.66
2022-09-11T08:19:09.133Z,99653.30
2022-09-11T08:21:37.256Z,99659.39
2022-09-11T08:24:05.434Z,99662.62
2022-09-11T08:26:36.824Z,99663.64
2022-09-11T08:29:05.384Z,99661.98
2022-09-11T08:31:35.404Z,99661.77
2022-09-11T08:34:03.887Z,99667.02
2022-09-11T08:36:32.003Z,99667.10
2022-09-11T08:39:03.028Z,99668.06
2022-09-11T08:41:50.014Z,99663.64
2022-09-11T08:44:25.737Z,99665.95
2022-09-11T08:47:02.823Z,99668.05
2022-09-11T08:49:49.505Z,99670.34
2022-09-11T08:52:17.711Z,99672.10
2022-09-11T08:54:47.867Z,99672.52
2022-09-11T08:57:40.977Z,99674.20
2022-09-11T09:00:28.485Z,99674.05
2022-09-11T09:03:19.193Z,99679.31
2022-09-11T09:06:10.954Z,99677.94
2022-09-11T09:09:00.839Z,99679.33
2022-09-11T09:11:47.330Z,99679.89
2022-09-11T09:14:33.771Z,99677.98
2022-09-11T09:17:17.430Z,99685.82
2022-09-11T09:20:06.444Z,99686.59
2022-09-11T09:23:00.230Z,99685.27
2022-09-11T09:25:31.004Z,99684.83
2022-09-11T09:28:17.578Z,99684.06
2022-09-11T09:30:57.602Z,99690.41
2022-09-11T09:33:50.044Z,99692.09
2022-09-11T09:36:24.168Z,99693.02
2022-09-11T09:38:54.309Z,99692.52
2022-09-11T09:41:44.113Z,99695.33
2022-09-11T09:44:24.228Z,99696.27
2022-09-11T09:46:55.975Z,99697.37
2022-09-11T09:49:34.784Z,99696.95
2022-09-11T09:52:18.884Z,99694.88
2022-09-11T09:54:57.478Z,99695.23
2022-09-11T09:57:32.012Z,99694.02
2022-09-11T10:00:09.915Z,99691.55
2022-09-11T10:03:13.818Z,99692.77
2022-09-11T10:05:44.054Z,99695.98
2022-09-11T10:08:38.394Z,99696.39
2022-09-11T10:11:10.850Z,99697.39
2022-09-11T10:13:42.877Z,99692.52
2022-09-11T10:16:40.449Z,99691.81
2022-09-11T10:19:42.241Z,99689.91
2022-09-11T10:22:31.545Z,99691.08
2022-09-11T10:25:11.854Z,99685.52
2022-09-11T10:28:04.797Z,99680.55
2022-09-11T10:30:43.309Z,99674.16
2022-09-11T10:33:23.886Z,99671.95
2022-09-11T10:36:09.254Z,99671.73
2022-09-11T10:38:45.302Z,99671.13
2022-09-11T10:41:14.087Z,99673.85
2022-09-11T10:43:44.919Z,99668.84
2022-09-11T10:46:18.634Z,99670.88
2022-09-11T10:48:55.667Z,99669.04
2022-09-11T10:51:26.860Z,99672.13
2022-09-11T10:54:07.485Z,99668.02
2022-09-11T10:56:43.334Z,99667.43
2022-09-11T10:59:20.006Z,99663.96
2022-09-11T11:01:50.446Z,99662.50
2022-09-11T11:04:19.185Z,99662.21
2022-09-11T11:07:10.103Z,99667.58
2022-09-11T11:10:03.811Z,99663.15
2022-09-11T11:13:05.293Z,99667.08
2022-09-11T11:15:53.978Z,99673.83
2022-09-11T11:18:47.838Z,99673.66
2022-09-11T11:21:37.785Z,99669.11
2022-09-11T11:24:29.214Z,99669.47
2022-09-11T11:27:04.795Z,99669.78
2022-09-11T11:29:33.905Z,99667.36
2022-09-11T11:32:15.813Z,99665.71
2022-09-11T11:35:01.795Z,99666.27
2022-09-11T11:37:36.358Z,99662.94
2022-09-11T11:40:50.236Z,99663.02
2022-09-11T11:43:23.445Z,99664.80
2022-09-11T11:46:02.555Z,99667.67
2022-09-11T11:48:42.413Z,99668.69
2022-09-11T11:51:18.993Z,99670.58
2022-09-11T11:53:51.469Z,99671.23
2022-09-11T11:56:31.114Z,99672.03
2022-09-11T11:59:17.073Z,99667.16
2022-09-11T12:02:11.974Z,99667.40
2022-09-11T12:05:02.354Z,99660.58
2022-09-11T12:07:41.509Z,99659.67
2022-09-11T12:10:28.807Z,99656.86
2022-09-11T12:13:01.914Z,99659.48
2022-09-11T12:15:32.480Z,99654.94
2022-09-11T12:18:12.379Z,99657.17
2022-09-11T12:20:46.369Z,99655.60
2022-09-11T12:23:56.400Z,99657.21
2022-09-11T12:26:30.815Z,99657.77
2022-09-11T12:29:14.901Z,99654.93
2022-09-11T12:31:49.125Z,99657.93
2022-09-11T12:34:38.936Z,99661.88
2022-09-11T12:37:15.271Z,99661.45
2022-09-11T12:40:03.717Z,99655.02
2022-09-11T12:42:31.864Z,99656.89
2022-09-11T12:45:00.476Z,99656.55
2022-09-11T12:47:40.633Z,99655.98
2022-09-11T12:50:11.289Z,99651.84
2022-09-11T12:53:02.383Z,99651.69
2022-09-11T12:55:37.194Z,99650.67
2022-09-11T12:58:23.085Z,99646.95
2022-09-11T13:01:13.765Z,99651.19
2022-09-11T13:03:57.345Z,99649.20
2022-09-11T13:06:41.347Z,99650.61
2022-09-11T13:09:30.286Z,99653.16
2022-09-11T13:12:18.265Z,99651.79
2022-09-11T13:14:51.114Z,99649.51
2022-09-11T13:17:51.995Z,99651.80
2022-09-11T13:20:23.134Z,99653.48
2022-09-11T13:22:58.143Z,99653.28
2022-09-11T13:25:28.342Z,99655.76
2022-09-11T13:28:03.885Z,99654.62
2022-09-11T13:30:33.194Z,99654.98
2022-09-11T13:33:08.651Z,99656.70
2022-09-11T13:35:40.370Z,99658.66
2022-09-11T13:38:25.774Z,99658.50
2022-09-11T13:41:01.455Z,99656.65
2022-09-11T13:43:37.524Z,99657.52
2022-09-11T13:46:23.314Z,99657.89
2022-09-11T13:48:57.482Z,99653.89
2022-09-11T13:51:32.107Z,99659.05
2022-09-11T13:54:13.136Z,99664.11
2022-09-11T13:57:12.718Z,99662.75
2022-09-11T13:59:45.265Z,99661.63
2022-09-11T14:02:23.713Z,99662.39
2022-09-11T14:04:53.504Z,99665.90
2022-09-11T14:07:24.892Z,99663.91
2022-09-11T14:10:08.401Z,99664.07
2022-09-11T14:12:51.722Z,99667.59
2022-09-11T14:15:42.554Z,99673.02
2022-09-11T14:18:17.784Z,99679.39
2022-09-11T14:20:46.513Z,99676.77
2022-09-11T14:23:45.230Z,99679.41
2022-09-11T14:26:19.934Z,99684.07
2022-09-11T14:29:10.386Z,99679.52
2022-09-11T14:31:56.328Z,99679.77
2022-09-11T14:34:29.364Z,99678.80
2022-09-11T14:37:11.967Z,99684.31
2022-09-11T14:39:47.972Z,99682.52
2022-09-11T14:42:21.402Z,99680.42
2022-09-11T14:44:50.014Z,99680.82
2022-09-11T14:47:23.254Z,99681.68
2022-09-11T14:49:56.126Z,99679.41
2022-09-11T14:52:29.543Z,99680.69
2022-09-11T14:54:57.916Z,99676.64
2022-09-11T14:57:33.150Z,99677.92
2022-09-11T15:00:01.368Z,99680.14
2022-09-11T15:02:29.846Z,99674.91
2022-09-11T15:04:58.676Z,99678.94
2022-09-11T15:07:28.725Z,99675.29
2022-09-11T15:09:56.861Z,99674.80
2022-09-11T15:12:25.044Z,99681.44
2022-09-11T15:14:57.229Z,99677.37
2022-09-11T15:17:31.863Z,99679.59
2022-09-11T15:20:00.448Z,99680.67
2022-09-11T15:22:29.124Z,99684.92
2022-09-11T15:24:57.388Z,99694.16
2022-09-11T15:27:25.977Z,99700.46
2022-09-11T15:29:54.966Z,99700.10
2022-09-11T15:32:23.343Z,99704.05
2022-09-11T15:34:51.958Z,99702.34
2022-09-11T15:37:20.312Z,99709.45
2022-09-11T15:39:51.084Z,99710.59
2022-09-11T15:42:19.769Z,99717.89
2022-09-11T15:44:48.154Z,99733.77
2022-09-11T15:47:16.895Z,99743.49
2022-09-11T15:49:45.216Z,99745.35
2022-09-11T15:52:14.735Z,99746.48
2022-09-11T15:54:45.725Z,99749.02
2022-09-11T15:57:13.884Z,99756.02
2022-09-11T15:59:42.985Z,99757.10
2022-09-11T16:02:12.625Z,99755.73
2022-09-11T16:04:40.845Z,99762.80
2022-09-11T16:07:09.394Z,99763.19
2022-09-11T16:09:37.612Z,99763.64
2022-09-11T16:12:05.960Z,99768.71
2022-09-11T16:14:38.624Z,99767.10
2022-09-11T16:17:08.397Z,99768.73
2022-09-11T16:19:36.709Z,99770.66
2022-09-11T16:22:08.164Z,99781.36
2022-09-11T16:24:38.434Z,99774.95
2022-09-11T16:27:10.955Z,99773.80
2022-09-11T16:30:20.290Z,99769.52
2022-09-11T16:32:38.363Z,99770.33
2022-09-11T16:35:10.165Z,99770.13
2022-09-11T16:37:38.604Z,99775.20
2022-09-11T16:40:08.514Z,99775.55
2022-09-11T16:42:37.160Z,99774.73
2022-09-11T16:45:05.735Z,99777.50
2022-09-11T16:47:35.016Z,99781.92
2022-09-11T16:50:06.862Z,99788.62
2022-09-11T16:52:36.996Z,99790.80
2022-09-11T16:55:08.596Z,99791.02
2022-09-11T16:57:37.532Z,99792.30
2022-09-11T17:00:07.932Z,99799.32
2022-09-11T17:02:37.861Z,99798.45
2022-09-11T17:05:08.383Z,99801.77
2022-09-11T17:07:36.742Z,99812.04
2022-09-11T17:10:05.046Z,99815.85
2022-09-11T17:12:33.079Z,99818.99
2022-09-11T17:15:02.074Z,99819.99
2022-09-11T17:17:31.456Z,99823.54
2022-09-11T17:19:59.557Z,99822.64
2022-09-11T17:22:29.980Z,99821.30
2022-09-11T17:24:58.047Z,99824.81
2022-09-11T17:27:26.090Z,99826.77
2022-09-11T17:29:54.084Z,99827.41
2022-09-11T17:32:30.069Z,99826.83
2022-09-11T17:34:59.179Z,99835.77
2022-09-11T17:37:30.680Z,99835.67
2022-09-11T17:39:59.102Z,99838.98
2022-09-11T17:42:29.119Z,99841.69
2022-09-11T17:44:57.086Z,99834.96
2022-09-11T17:47:29.260Z,99826.90
2022-09-11T17:49:57.700Z,99830.98
2022-09-11T17:52:26.838Z,99827.91
2022-09-11T17:54:54.826Z,99825.35
2022-09-11T17:57:25.672Z,99828.30
2022-09-11T17:59:55.610Z,99826.81
2022-09-11T18:02:24.087Z,99819.71
2022-09-11T18:04:52.967Z,99817.33
2022-09-11T18:07:21.542Z,99818.41
2022-09-11T18:09:54.104Z,99827.42
2022-09-11T18:12:26.875Z,99829.17
2022-09-11T18:14:57.089Z,99832.16
2022-09-11T18:17:25.109Z,99825.40
2022-09-11T18:19:53.175Z,99821.88
2022-09-11T18:22:22.734Z,99823.65
2022-09-11T18:24:52.280Z,99826.35
2022-09-11T18:27:20.484Z,99829.30
2022-09-11T18:29:50.127Z,99825.41
2022-09-11T18:32:19.920Z,99822.38
2022-09-11T18:34:48.724Z,99820.70
2022-09-11T18:37:17.619Z,99825.44
2022-09-11T18:39:47.211Z,99826.05
2022-09-11T18:42:15.399Z,99822.48
2022-09-11T18:44:43.359Z,99821.96
2022-09-11T18:47:11.659Z,99822.63
2022-09-11T18:49:39.777Z,99821.62
2022-09-11T18:52:09.104Z,99826.02
2022-09-11T18:54:37.472Z,99822.90
2022-09-11T18:57:05.660Z,99828.05
2022-09-11T18:59:33.819Z,99824.77
2022-09-11T19:02:02.471Z,99822.23
2022-09-11T19:04:30.837Z,99826.33
2022-09-11T19:07:00.279Z,99824.35
2022-09-11T19:09:29.482Z,99825.58
2022-09-11T19:12:00.298Z,99822.02
2022-09-11T19:14:28.814Z,99825.92
2022-09-11T19:16:56.831Z,99825.55
2022-09-11T19:19:25.985Z,99823.45
2022-09-11T19:21:53.912Z,99829.44
2022-09-11T19:24:23.894Z,99831.08
2022-09-11T19:26:53.191Z,99825.31
2022-09-11T19:29:22.794Z,99822.13
2022-09-11T19:31:52.961Z,99820.27
2022-09-11T19:34:24.765Z,99824.18
2022-09-11T19:36:53.609Z,99822.41
2022-09-11T19:39:22.004Z,99820.97
2022-09-11T19:41:50.550Z,99823.02
2022-09-11T19:44:21.064Z,99823.06
2022-09-11T19:46:54.052Z,99821.67
2022-09-11T19:49:22.787Z,99824.66
2022-09-11T19:51:52.948Z,99822.17
2022-09-11T19:54:22.636Z,99833.04
2022-09-11T19:56:51.656Z,99833.48
2022-09-11T19:59:19.949Z,99832.66
2022-09-11T20:01:48.294Z,99833.73
2022-09-11T20:04:17.734Z,99835.13
2022-09-11T20:09:32.426Z,99834.23
2022-09-11T20:12:01.858Z,99834.02
2022-09-11T20:14:31.443Z,99834.39
2022-09-11T20:17:01.245Z,99832.55
2022-09-11T20:19:29.687Z,99830.30
2022-09-11T20:21:58.064Z,99839.70
2022-09-11T20:24:26.199Z,99840.73
2022-09-11T20:26:54.977Z,99839.97
2022-09-11T20:29:23.079Z,99841.43
2022-09-11T20:31:51.335Z,99838.40
2022-09-11T20:34:20.422Z,99834.98
2022-09-11T20:36:48.557Z,99836.77
2022-09-11T20:39:17.199Z,99838.17
2022-09-11T20:41:45.535Z,99838.73
2022-09-11T20:44:13.509Z,99834.94
2022-09-11T20:46:43.810Z,99834.80
2022-09-11T20:49:12.391Z,99834.60
2022-09-11T20:51:40.770Z,99834.11
2022-09-11T20:54:10.288Z,99834.96
2022-09-11T20:56:38.544Z,99838.77
2022-09-11T20:59:07.054Z,99834.25
2022-09-11T21:01:35.364Z,99837.30
2022-09-11T21:04:04.797Z,99835.02
2022-09-11T21:06:35.052Z,99832.28
2022-09-11T21:09:09.205Z,99834.23
2022-09-11T21:11:39.544Z,99836.41
2022-09-11T21:14:07.576Z,99835.25
2022-09-11T21:16:35.800Z,99832.58
2022-09-11T21:19:05.586Z,99832.23
2022-09-11T21:21:35.685Z,99833.02
2022-09-11T21:24:06.677Z,99832.95
2022-09-11T21:26:35.461Z,99838.07
2022-09-11T21:29:07.751Z,99836.27
2022-09-11T21:31:39.233Z,99833.86
2022-09-11T21:34:07.417Z,99833.59
2022-09-11T21:36:37.310Z,99828.34
2022-09-11T21:39:05.752Z,99834.73
2022-09-11T21:41:33.854Z,99833.50
2022-09-11T21:44:02.135Z,99837.34
2022-09-11T21:46:30.150Z,99836.59
2022-09-11T21:48:58.219Z,99835.17
2022-09-11T21:51:26.315Z,99841.80
2022-09-11T21:54:02.030Z,99839.35
2022-09-11T21:56:33.377Z,99840.64
2022-09-11T21:59:02.589Z,99839.06
2022-09-11T22:01:32.184Z,99843.54
2022-09-11T22:04:00.839Z,99845.23
2022-09-11T22:06:30.106Z,99839.90
2022-09-11T22:08:58.594Z,99843.80
2022-09-11T22:11:27.133Z,99847.90
2022-09-11T22:13:55.298Z,99844.98
2022-09-11T22:16:23.763Z,99847.40
2022-09-11T22:18:54.876Z,99848.17
2022-09-11T22:21:23.086Z,99853.95
2022-09-11T22:23:51.859Z,99846.16
2022-09-11T22:26:24.233Z,99849.27
2022-09-11T22:28:52.790Z,99851.96
2022-09-11T22:31:24.211Z,99850.88
2022-09-11T22:33:54.114Z,99849.63
2022-09-11T22:36:28.250Z,99847.31
2022-09-11T22:38:58.113Z,99847.23
2022-09-11T22:41:27.208Z,99844.67
2022-09-11T22:43:55.448Z,99841.36
2022-09-11T22:46:27.164Z,99838.77
2022-09-11T22:48:55.970Z,99836.17
2022-09-11T22:51:23.943Z,99839.01
2022-09-11T22:53:52.003Z,99838.07
2022-09-11T22:56:20.289Z,99842.52
2022-09-11T22:58:48.279Z,99842.02
2022-09-11T23:01:22.181Z,99845.25
2022-09-11T23:03:54.911Z,99842.08
2022-09-11T23:06:42.074Z,99843.58
2022-09-11T23:09:13.768Z,99837.36
2022-09-11T23:11:41.840Z,99843.40
2022-09-11T23:14:14.159Z,99846.71
2022-09-11T23:16:44.068Z,99849.23
2022-09-11T23:19:15.111Z,99855.83
2022-09-11T23:21:43.601Z,99852.67
2022-09-11T23:24:14.773Z,99859.80
2022-09-11T23:26:44.194Z,99850.36
2022-09-11T23:29:13.083Z,99848.62
2022-09-11T23:31:41.788Z,99852.92
2022-09-11T23:34:16.926Z,99849.59
2022-09-11T23:36:45.283Z,99846.58
2022-09-11T23:39:14.613Z,99849.05
2022-09-11T23:41:42.743Z,99851.80
2022-09-11T23:44:11.052Z,99851.20
2022-09-11T23:46:39.343Z,99848.09
2022-09-11T23:49:07.576Z,99846.65
2022-09-11T23:51:35.561Z,99842.08
2022-09-11T23:54:03.757Z,99843.33
2022-09-11T23:56:31.851Z,99845.25
2022-09-11T23:58:59.964Z,99850.77
